sensor_id;sensor_type;location;lat;lon;timestamp;temperature;humidity
15705;DHT22;7952;48.396;12.806;2023-02-28T00:01:36;1.50;47.30
15705;DHT22;7952;48.396;12.806;2023-02-28T00:04:02;1.50;47.30
15705;DHT22;7952;48.396;12.806;2023-02-28T00:06:28;1.50;47.40
15705;DHT22;7952;48.396;12.806;2023-02-28T00:08:53;1.50;47.40
15705;DHT22;7952;48.396;12.806;2023-02-28T00:11:19;1.50;47.50
15705;DHT22;7952;48.396;12.806;2023-02-28T00:13:46;1.50;47.50
15705;DHT22;7952;48.396;12.806;2023-02-28T00:16:18;1.50;47.60
15705;DHT22;7952;48.396;12.806;2023-02-28T00:18:44;1.50;47.60
15705;DHT22;7952;48.396;12.806;2023-02-28T00:21:09;1.50;47.60
15705;DHT22;7952;48.396;12.806;2023-02-28T00:23:36;1.50;47.60
15705;DHT22;7952;48.396;12.806;2023-02-28T00:26:01;1.50;47.60
15705;DHT22;7952;48.396;12.806;2023-02-28T00:28:27;1.50;47.70
15705;DHT22;7952;48.396;12.806;2023-02-28T00:30:53;1.50;47.70
15705;DHT22;7952;48.396;12.806;2023-02-28T00:33:18;1.50;47.80
15705;DHT22;7952;48.396;12.806;2023-02-28T00:35:44;1.50;47.90
15705;DHT22;7952;48.396;12.806;2023-02-28T00:38:12;1.50;47.90
15705;DHT22;7952;48.396;12.806;2023-02-28T00:40:38;1.50;47.90
15705;DHT22;7952;48.396;12.806;2023-02-28T00:43:03;1.50;47.90
15705;DHT22;7952;48.396;12.806;2023-02-28T00:45:29;1.50;47.90
15705;DHT22;7952;48.396;12.806;2023-02-28T00:47:54;1.50;47.90
15705;DHT22;7952;48.396;12.806;2023-02-28T00:50:20;1.50;47.90
15705;DHT22;7952;48.396;12.806;2023-02-28T00:52:47;1.50;47.90
15705;DHT22;7952;48.396;12.806;2023-02-28T00:55:12;1.50;48.00
15705;DHT22;7952;48.396;12.806;2023-02-28T00:57:38;1.50;48.00
15705;DHT22;7952;48.396;12.806;2023-02-28T01:00:05;1.50;48.10
15705;DHT22;7952;48.396;12.806;2023-02-28T01:02:30;1.50;48.10
15705;DHT22;7952;48.396;12.806;2023-02-28T01:04:56;1.40;48.00
15705;DHT22;7952;48.396;12.806;2023-02-28T01:07:22;1.40;48.10
15705;DHT22;7952;48.396;12.806;2023-02-28T01:09:48;1.40;48.10
15705;DHT22;7952;48.396;12.806;2023-02-28T01:12:13;1.40;48.20
15705;DHT22;7952;48.396;12.806;2023-02-28T01:14:39;1.40;48.20
15705;DHT22;7952;48.396;12.806;2023-02-28T01:17:05;1.40;48.20
15705;DHT22;7952;48.396;12.806;2023-02-28T01:19:31;1.40;48.30
15705;DHT22;7952;48.396;12.806;2023-02-28T01:21:56;1.40;48.30
15705;DHT22;7952;48.396;12.806;2023-02-28T01:24:22;1.40;48.40
15705;DHT22;7952;48.396;12.806;2023-02-28T01:26:47;1.30;48.30
15705;DHT22;7952;48.396;12.806;2023-02-28T01:29:13;1.30;48.30
15705;DHT22;7952;48.396;12.806;2023-02-28T01:31:38;1.30;48.30
15705;DHT22;7952;48.396;12.806;2023-02-28T01:34:04;1.30;48.40
15705;DHT22;7952;48.396;12.806;2023-02-28T01:36:30;1.30;48.50
15705;DHT22;7952;48.396;12.806;2023-02-28T01:38:56;1.30;48.50
15705;DHT22;7952;48.396;12.806;2023-02-28T01:41:26;1.30;48.60
15705;DHT22;7952;48.396;12.806;2023-02-28T01:44:02;1.30;48.60
15705;DHT22;7952;48.396;12.806;2023-02-28T01:46:33;1.30;48.60
15705;DHT22;7952;48.396;12.806;2023-02-28T01:51:39;1.30;48.70
15705;DHT22;7952;48.396;12.806;2023-02-28T01:54:12;1.20;48.60
15705;DHT22;7952;48.396;12.806;2023-02-28T01:56:44;1.20;48.60
15705;DHT22;7952;48.396;12.806;2023-02-28T01:59:14;1.20;48.70
15705;DHT22;7952;48.396;12.806;2023-02-28T02:01:43;1.20;48.70
15705;DHT22;7952;48.396;12.806;2023-02-28T02:04:09;1.20;48.70
15705;DHT22;7952;48.396;12.806;2023-02-28T02:06:41;1.20;48.80
15705;DHT22;7952;48.396;12.806;2023-02-28T02:09:07;1.20;48.80
15705;DHT22;7952;48.396;12.806;2023-02-28T02:11:34;1.20;48.80
15705;DHT22;7952;48.396;12.806;2023-02-28T02:20:09;1.20;48.90
15705;DHT22;7952;48.396;12.806;2023-02-28T02:23:02;1.20;48.90
15705;DHT22;7952;48.396;12.806;2023-02-28T02:26:21;1.10;48.80
15705;DHT22;7952;48.396;12.806;2023-02-28T02:37:42;1.00;48.90
15705;DHT22;7952;48.396;12.806;2023-02-28T02:40:19;1.00;48.90
15705;DHT22;7952;48.396;12.806;2023-02-28T02:43:32;1.00;49.00
15705;DHT22;7952;48.396;12.806;2023-02-28T02:46:04;1.00;49.00
15705;DHT22;7952;48.396;12.806;2023-02-28T02:48:34;1.00;49.10
15705;DHT22;7952;48.396;12.806;2023-02-28T02:51:05;0.90;49.00
15705;DHT22;7952;48.396;12.806;2023-02-28T02:53:44;0.90;49.00
15705;DHT22;7952;48.396;12.806;2023-02-28T02:56:12;0.90;49.00
15705;DHT22;7952;48.396;12.806;2023-02-28T02:58:41;0.90;49.00
15705;DHT22;7952;48.396;12.806;2023-02-28T03:01:08;0.90;49.10
15705;DHT22;7952;48.396;12.806;2023-02-28T03:03:36;1.00;49.20
15705;DHT22;7952;48.396;12.806;2023-02-28T03:06:02;1.00;49.20
15705;DHT22;7952;48.396;12.806;2023-02-28T03:08:33;1.00;49.20
15705;DHT22;7952;48.396;12.806;2023-02-28T03:11:01;1.00;49.10
15705;DHT22;7952;48.396;12.806;2023-02-28T03:21:48;0.90;49.10
15705;DHT22;7952;48.396;12.806;2023-02-28T03:27:24;0.90;49.10
15705;DHT22;7952;48.396;12.806;2023-02-28T03:32:39;0.90;49.20
15705;DHT22;7952;48.396;12.806;2023-02-28T03:35:08;0.90;49.10
15705;DHT22;7952;48.396;12.806;2023-02-28T03:37:37;0.90;49.10
15705;DHT22;7952;48.396;12.806;2023-02-28T03:40:14;0.90;49.20
15705;DHT22;7952;48.396;12.806;2023-02-28T03:42:44;1.00;49.30
15705;DHT22;7952;48.396;12.806;2023-02-28T03:45:25;0.90;49.20
15705;DHT22;7952;48.396;12.806;2023-02-28T03:48:03;0.90;49.20
15705;DHT22;7952;48.396;12.806;2023-02-28T03:50:40;0.90;49.20
15705;DHT22;7952;48.396;12.806;2023-02-28T03:53:27;1.00;49.20
15705;DHT22;7952;48.396;12.806;2023-02-28T03:56:01;1.00;49.20
15705;DHT22;7952;48.396;12.806;2023-02-28T03:58:38;1.00;49.10
15705;DHT22;7952;48.396;12.806;2023-02-28T04:01:25;0.90;48.90
15705;DHT22;7952;48.396;12.806;2023-02-28T04:03:53;0.90;49.00
15705;DHT22;7952;48.396;12.806;2023-02-28T04:06:20;0.90;49.00
15705;DHT22;7952;48.396;12.806;2023-02-28T04:08:47;0.90;49.00
15705;DHT22;7952;48.396;12.806;2023-02-28T04:11:33;0.90;49.00
15705;DHT22;7952;48.396;12.806;2023-02-28T04:14:01;0.80;49.00
15705;DHT22;7952;48.396;12.806;2023-02-28T04:16:27;0.80;49.00
15705;DHT22;7952;48.396;12.806;2023-02-28T04:18:53;0.80;49.00
15705;DHT22;7952;48.396;12.806;2023-02-28T04:21:19;0.70;49.00
15705;DHT22;7952;48.396;12.806;2023-02-28T04:23:47;0.70;49.00
15705;DHT22;7952;48.396;12.806;2023-02-28T04:26:13;0.70;49.10
15705;DHT22;7952;48.396;12.806;2023-02-28T04:28:38;0.70;49.10
15705;DHT22;7952;48.396;12.806;2023-02-28T04:31:04;0.60;49.10
15705;DHT22;7952;48.396;12.806;2023-02-28T04:33:31;0.60;49.00
15705;DHT22;7952;48.396;12.806;2023-02-28T04:36:02;0.60;49.10
15705;DHT22;7952;48.396;12.806;2023-02-28T04:38:33;0.60;49.20
15705;DHT22;7952;48.396;12.806;2023-02-28T04:40:59;0.60;49.20
15705;DHT22;7952;48.396;12.806;2023-02-28T04:43:26;0.50;49.70
15705;DHT22;7952;48.396;12.806;2023-02-28T04:45:52;0.60;49.30
15705;DHT22;7952;48.396;12.806;2023-02-28T04:48:25;0.50;49.20
15705;DHT22;7952;48.396;12.806;2023-02-28T04:50:51;0.50;49.30
15705;DHT22;7952;48.396;12.806;2023-02-28T04:53:17;0.50;49.30
15705;DHT22;7952;48.396;12.806;2023-02-28T04:55:43;0.50;49.30
15705;DHT22;7952;48.396;12.806;2023-02-28T04:58:09;0.50;49.30
15705;DHT22;7952;48.396;12.806;2023-02-28T05:00:35;0.50;49.30
15705;DHT22;7952;48.396;12.806;2023-02-28T05:03:01;0.50;49.40
15705;DHT22;7952;48.396;12.806;2023-02-28T05:05:26;0.50;49.40
15705;DHT22;7952;48.396;12.806;2023-02-28T05:07:52;0.50;49.40
15705;DHT22;7952;48.396;12.806;2023-02-28T05:10:18;0.40;49.30
15705;DHT22;7952;48.396;12.806;2023-02-28T05:12:44;0.40;49.40
15705;DHT22;7952;48.396;12.806;2023-02-28T05:15:13;0.50;49.50
15705;DHT22;7952;48.396;12.806;2023-02-28T05:17:39;0.40;49.40
15705;DHT22;7952;48.396;12.806;2023-02-28T05:20:05;0.40;49.40
15705;DHT22;7952;48.396;12.806;2023-02-28T05:22:31;0.40;49.40
15705;DHT22;7952;48.396;12.806;2023-02-28T05:24:57;0.40;49.40
15705;DHT22;7952;48.396;12.806;2023-02-28T05:27:23;0.40;49.40
15705;DHT22;7952;48.396;12.806;2023-02-28T05:29:48;0.40;49.40
15705;DHT22;7952;48.396;12.806;2023-02-28T05:32:14;0.40;49.50
15705;DHT22;7952;48.396;12.806;2023-02-28T05:34:40;0.40;49.50
15705;DHT22;7952;48.396;12.806;2023-02-28T05:37:11;0.40;49.50
15705;DHT22;7952;48.396;12.806;2023-02-28T05:39:37;0.40;49.50
15705;DHT22;7952;48.396;12.806;2023-02-28T05:42:04;0.40;49.40
15705;DHT22;7952;48.396;12.806;2023-02-28T05:44:29;0.40;49.40
15705;DHT22;7952;48.396;12.806;2023-02-28T05:46:55;0.40;49.50
15705;DHT22;7952;48.396;12.806;2023-02-28T05:49:20;0.40;49.50
15705;DHT22;7952;48.396;12.806;2023-02-28T05:51:46;0.40;49.50
15705;DHT22;7952;48.396;12.806;2023-02-28T05:54:11;0.40;49.50
15705;DHT22;7952;48.396;12.806;2023-02-28T05:56:37;0.40;49.50
15705;DHT22;7952;48.396;12.806;2023-02-28T05:59:05;0.40;49.50
15705;DHT22;7952;48.396;12.806;2023-02-28T06:01:42;0.40;49.50
15705;DHT22;7952;48.396;12.806;2023-02-28T06:04:13;0.40;49.50
15705;DHT22;7952;48.396;12.806;2023-02-28T06:06:43;0.40;49.50
15705;DHT22;7952;48.396;12.806;2023-02-28T06:09:10;0.40;49.50
15705;DHT22;7952;48.396;12.806;2023-02-28T06:11:35;0.40;49.50
15705;DHT22;7952;48.396;12.806;2023-02-28T06:14:02;0.50;49.60
15705;DHT22;7952;48.396;12.806;2023-02-28T06:16:29;0.50;49.60
15705;DHT22;7952;48.396;12.806;2023-02-28T06:18:57;0.60;50.00
15705;DHT22;7952;48.396;12.806;2023-02-28T06:21:23;0.80;50.20
15705;DHT22;7952;48.396;12.806;2023-02-28T06:23:49;1.00;50.50
15705;DHT22;7952;48.396;12.806;2023-02-28T06:26:14;1.20;50.50
15705;DHT22;7952;48.396;12.806;2023-02-28T06:28:40;1.40;50.50
15705;DHT22;7952;48.396;12.806;2023-02-28T06:31:11;1.70;50.60
15705;DHT22;7952;48.396;12.806;2023-02-28T06:33:37;1.90;50.50
15705;DHT22;7952;48.396;12.806;2023-02-28T06:36:04;2.20;50.50
15705;DHT22;7952;48.396;12.806;2023-02-28T06:38:30;2.50;50.50
15705;DHT22;7952;48.396;12.806;2023-02-28T06:40:56;2.70;50.40
15705;DHT22;7952;48.396;12.806;2023-02-28T06:43:24;3.00;50.30
15705;DHT22;7952;48.396;12.806;2023-02-28T06:45:50;3.30;50.30
15705;DHT22;7952;48.396;12.806;2023-02-28T06:48:16;3.50;50.30
15705;DHT22;7952;48.396;12.806;2023-02-28T06:50:42;3.80;50.30
15705;DHT22;7952;48.396;12.806;2023-02-28T06:53:07;4.10;50.20
15705;DHT22;7952;48.396;12.806;2023-02-28T06:55:33;4.40;50.30
15705;DHT22;7952;48.396;12.806;2023-02-28T06:57:58;4.60;50.20
15705;DHT22;7952;48.396;12.806;2023-02-28T07:00:24;4.90;50.00
15705;DHT22;7952;48.396;12.806;2023-02-28T07:02:50;5.20;49.80
15705;DHT22;7952;48.396;12.806;2023-02-28T07:05:16;5.40;49.80
15705;DHT22;7952;48.396;12.806;2023-02-28T07:07:41;5.60;49.70
15705;DHT22;7952;48.396;12.806;2023-02-28T07:10:12;5.80;49.30
15705;DHT22;7952;48.396;12.806;2023-02-28T07:12:39;6.00;49.20
15705;DHT22;7952;48.396;12.806;2023-02-28T07:15:05;6.10;48.90
15705;DHT22;7952;48.396;12.806;2023-02-28T07:17:31;6.20;48.70
15705;DHT22;7952;48.396;12.806;2023-02-28T07:19:57;6.40;48.60
15705;DHT22;7952;48.396;12.806;2023-02-28T07:22:22;6.50;48.30
15705;DHT22;7952;48.396;12.806;2023-02-28T07:24:48;6.50;48.10
15705;DHT22;7952;48.396;12.806;2023-02-28T07:27:13;6.60;47.90
15705;DHT22;7952;48.396;12.806;2023-02-28T07:29:49;6.70;47.60
15705;DHT22;7952;48.396;12.806;2023-02-28T07:32:15;6.70;47.20
15705;DHT22;7952;48.396;12.806;2023-02-28T07:34:40;6.80;47.10
15705;DHT22;7952;48.396;12.806;2023-02-28T07:37:06;6.80;47.00
15705;DHT22;7952;48.396;12.806;2023-02-28T07:39:31;6.90;47.10
15705;DHT22;7952;48.396;12.806;2023-02-28T07:41:57;6.90;47.10
15705;DHT22;7952;48.396;12.806;2023-02-28T07:44:22;7.00;46.90
15705;DHT22;7952;48.396;12.806;2023-02-28T07:46:48;7.10;46.60
15705;DHT22;7952;48.396;12.806;2023-02-28T07:49:13;7.20;46.40
15705;DHT22;7952;48.396;12.806;2023-02-28T07:51:39;7.20;45.90
15705;DHT22;7952;48.396;12.806;2023-02-28T07:54:05;7.20;46.10
15705;DHT22;7952;48.396;12.806;2023-02-28T07:56:30;7.30;46.40
15705;DHT22;7952;48.396;12.806;2023-02-28T07:58:56;7.40;46.40
15705;DHT22;7952;48.396;12.806;2023-02-28T08:01:21;7.50;46.10
15705;DHT22;7952;48.396;12.806;2023-02-28T08:03:47;7.60;45.70
15705;DHT22;7952;48.396;12.806;2023-02-28T08:06:19;7.70;45.60
15705;DHT22;7952;48.396;12.806;2023-02-28T08:08:45;7.70;45.30
15705;DHT22;7952;48.396;12.806;2023-02-28T08:11:10;7.70;45.30
15705;DHT22;7952;48.396;12.806;2023-02-28T08:13:36;7.80;45.20
15705;DHT22;7952;48.396;12.806;2023-02-28T08:16:02;7.80;44.80
15705;DHT22;7952;48.396;12.806;2023-02-28T08:18:28;7.90;44.80
15705;DHT22;7952;48.396;12.806;2023-02-28T08:20:53;7.90;44.60
15705;DHT22;7952;48.396;12.806;2023-02-28T08:23:19;8.00;44.80
15705;DHT22;7952;48.396;12.806;2023-02-28T08:25:45;8.00;45.10
15705;DHT22;7952;48.396;12.806;2023-02-28T08:28:17;8.20;45.20
15705;DHT22;7952;48.396;12.806;2023-02-28T08:30:43;8.30;44.30
15705;DHT22;7952;48.396;12.806;2023-02-28T08:33:08;8.30;44.10
15705;DHT22;7952;48.396;12.806;2023-02-28T08:35:35;8.30;44.00
15705;DHT22;7952;48.396;12.806;2023-02-28T08:38:01;8.30;43.70
15705;DHT22;7952;48.396;12.806;2023-02-28T08:40:27;8.30;43.30
15705;DHT22;7952;48.396;12.806;2023-02-28T08:42:52;8.30;43.30
15705;DHT22;7952;48.396;12.806;2023-02-28T08:45:18;8.40;43.10
15705;DHT22;7952;48.396;12.806;2023-02-28T08:47:43;8.40;42.70
15705;DHT22;7952;48.396;12.806;2023-02-28T08:50:09;8.30;42.90
15705;DHT22;7952;48.396;12.806;2023-02-28T08:52:35;8.40;43.10
15705;DHT22;7952;48.396;12.806;2023-02-28T08:55:00;8.40;43.20
15705;DHT22;7952;48.396;12.806;2023-02-28T08:57:26;8.50;43.00
15705;DHT22;7952;48.396;12.806;2023-02-28T08:59:52;8.50;42.60
15705;DHT22;7952;48.396;12.806;2023-02-28T09:02:18;8.50;42.40
15705;DHT22;7952;48.396;12.806;2023-02-28T09:04:43;8.60;42.50
15705;DHT22;7952;48.396;12.806;2023-02-28T09:07:11;8.60;42.40
15705;DHT22;7952;48.396;12.806;2023-02-28T09:09:37;8.60;42.30
15705;DHT22;7952;48.396;12.806;2023-02-28T09:12:02;8.60;42.30
15705;DHT22;7952;48.396;12.806;2023-02-28T09:14:28;8.70;42.70
15705;DHT22;7952;48.396;12.806;2023-02-28T09:16:54;8.70;42.40
15705;DHT22;7952;48.396;12.806;2023-02-28T09:19:20;8.70;42.10
15705;DHT22;7952;48.396;12.806;2023-02-28T09:21:45;8.80;42.20
15705;DHT22;7952;48.396;12.806;2023-02-28T09:24:11;8.70;41.90
15705;DHT22;7952;48.396;12.806;2023-02-28T09:26:39;8.80;42.00
15705;DHT22;7952;48.396;12.806;2023-02-28T09:29:05;8.80;42.30
15705;DHT22;7952;48.396;12.806;2023-02-28T09:31:31;8.80;42.20
15705;DHT22;7952;48.396;12.806;2023-02-28T09:33:58;8.90;42.30
15705;DHT22;7952;48.396;12.806;2023-02-28T09:36:25;8.90;42.50
15705;DHT22;7952;48.396;12.806;2023-02-28T09:38:51;9.00;42.40
15705;DHT22;7952;48.396;12.806;2023-02-28T09:41:25;9.10;42.30
15705;DHT22;7952;48.396;12.806;2023-02-28T09:43:56;9.20;42.40
15705;DHT22;7952;48.396;12.806;2023-02-28T09:46:38;9.30;41.80
15705;DHT22;7952;48.396;12.806;2023-02-28T09:49:12;9.20;41.60
15705;DHT22;7952;48.396;12.806;2023-02-28T09:52:01;9.20;41.80
15705;DHT22;7952;48.396;12.806;2023-02-28T09:54:30;9.20;41.60
15705;DHT22;7952;48.396;12.806;2023-02-28T09:57:06;9.20;41.50
15705;DHT22;7952;48.396;12.806;2023-02-28T09:59:48;9.20;41.50
15705;DHT22;7952;48.396;12.806;2023-02-28T10:08:27;9.00;40.90
15705;DHT22;7952;48.396;12.806;2023-02-28T10:10:59;8.90;40.90
15705;DHT22;7952;48.396;12.806;2023-02-28T10:14:12;8.80;40.80
15705;DHT22;7952;48.396;12.806;2023-02-28T10:16:54;8.70;41.00
15705;DHT22;7952;48.396;12.806;2023-02-28T10:22:05;8.60;40.80
15705;DHT22;7952;48.396;12.806;2023-02-28T10:24:37;8.60;41.00
15705;DHT22;7952;48.396;12.806;2023-02-28T10:27:21;8.50;41.00
15705;DHT22;7952;48.396;12.806;2023-02-28T10:29:49;8.50;40.90
15705;DHT22;7952;48.396;12.806;2023-02-28T10:32:21;8.40;40.70
15705;DHT22;7952;48.396;12.806;2023-02-28T10:37:45;8.10;40.70
15705;DHT22;7952;48.396;12.806;2023-02-28T10:40:34;7.90;40.70
15705;DHT22;7952;48.396;12.806;2023-02-28T10:43:19;7.80;40.70
15705;DHT22;7952;48.396;12.806;2023-02-28T10:53:39;7.20;41.40
15705;DHT22;7952;48.396;12.806;2023-02-28T11:01:45;7.10;41.90
15705;DHT22;7952;48.396;12.806;2023-02-28T11:07:03;7.00;42.00
15705;DHT22;7952;48.396;12.806;2023-02-28T11:09:39;7.00;42.00
15705;DHT22;7952;48.396;12.806;2023-02-28T11:12:18;7.00;42.00
15705;DHT22;7952;48.396;12.806;2023-02-28T11:15:00;7.00;42.00
15705;DHT22;7952;48.396;12.806;2023-02-28T11:17:30;6.90;42.00
15705;DHT22;7952;48.396;12.806;2023-02-28T11:19:59;7.00;42.20
15705;DHT22;7952;48.396;12.806;2023-02-28T11:22:31;6.90;42.30
15705;DHT22;7952;48.396;12.806;2023-02-28T11:25:00;7.00;42.40
15705;DHT22;7952;48.396;12.806;2023-02-28T11:27:40;7.00;42.40
15705;DHT22;7952;48.396;12.806;2023-02-28T11:32:51;7.10;42.40
15705;DHT22;7952;48.396;12.806;2023-02-28T11:35:23;7.10;42.30
15705;DHT22;7952;48.396;12.806;2023-02-28T11:37:49;7.10;42.40
15705;DHT22;7952;48.396;12.806;2023-02-28T11:40:18;7.10;42.40
15705;DHT22;7952;48.396;12.806;2023-02-28T11:45:43;7.20;42.80
15705;DHT22;7952;48.396;12.806;2023-02-28T11:48:22;7.20;42.80
15705;DHT22;7952;48.396;12.806;2023-02-28T11:59:05;7.40;42.40
15705;DHT22;7952;48.396;12.806;2023-02-28T12:04:25;7.40;42.60
15705;DHT22;7952;48.396;12.806;2023-02-28T12:07:04;7.40;42.50
15705;DHT22;7952;48.396;12.806;2023-02-28T12:09:51;7.40;42.40
15705;DHT22;7952;48.396;12.806;2023-02-28T12:12:38;7.40;42.50
15705;DHT22;7952;48.396;12.806;2023-02-28T12:15:26;7.40;42.50
15705;DHT22;7952;48.396;12.806;2023-02-28T12:23:59;7.50;42.80
15705;DHT22;7952;48.396;12.806;2023-02-28T12:26:40;7.50;42.90
15705;DHT22;7952;48.396;12.806;2023-02-28T12:34:35;7.60;42.70
15705;DHT22;7952;48.396;12.806;2023-02-28T12:37:07;7.60;42.40
15705;DHT22;7952;48.396;12.806;2023-02-28T12:39:40;7.60;42.60
15705;DHT22;7952;48.396;12.806;2023-02-28T12:42:28;7.60;42.60
15705;DHT22;7952;48.396;12.806;2023-02-28T12:45:40;7.60;42.60
15705;DHT22;7952;48.396;12.806;2023-02-28T12:48:10;7.60;42.70
15705;DHT22;7952;48.396;12.806;2023-02-28T12:50:37;7.50;42.70
15705;DHT22;7952;48.396;12.806;2023-02-28T12:53:41;7.60;42.70
15705;DHT22;7952;48.396;12.806;2023-02-28T12:57:02;7.60;42.70
15705;DHT22;7952;48.396;12.806;2023-02-28T13:05:49;7.50;42.70
15705;DHT22;7952;48.396;12.806;2023-02-28T13:08:41;7.50;42.90
15705;DHT22;7952;48.396;12.806;2023-02-28T13:11:45;7.60;42.90
15705;DHT22;7952;48.396;12.806;2023-02-28T13:14:29;7.60;42.80
15705;DHT22;7952;48.396;12.806;2023-02-28T13:19:38;7.60;42.80
15705;DHT22;7952;48.396;12.806;2023-02-28T13:22:05;7.60;43.10
15705;DHT22;7952;48.396;12.806;2023-02-28T13:29:39;7.70;42.90
15705;DHT22;7952;48.396;12.806;2023-02-28T13:39:56;7.70;43.50
15705;DHT22;7952;48.396;12.806;2023-02-28T13:47:39;7.60;42.80
15705;DHT22;7952;48.396;12.806;2023-02-28T13:56:26;7.50;42.90
15705;DHT22;7952;48.396;12.806;2023-02-28T13:58:53;7.50;43.00
15705;DHT22;7952;48.396;12.806;2023-02-28T14:06:51;7.60;43.10
15705;DHT22;7952;48.396;12.806;2023-02-28T14:09:23;7.60;43.00
15705;DHT22;7952;48.396;12.806;2023-02-28T14:11:50;7.50;42.80
15705;DHT22;7952;48.396;12.806;2023-02-28T14:17:02;7.50;43.10
15705;DHT22;7952;48.396;12.806;2023-02-28T14:19:31;7.50;43.20
15705;DHT22;7952;48.396;12.806;2023-02-28T14:30:26;7.50;43.10
15705;DHT22;7952;48.396;12.806;2023-02-28T14:33:32;7.50;43.20
15705;DHT22;7952;48.396;12.806;2023-02-28T14:36:27;7.60;43.30
15705;DHT22;7952;48.396;12.806;2023-02-28T14:38:58;7.60;43.40
15705;DHT22;7952;48.396;12.806;2023-02-28T14:41:33;7.60;43.30
15705;DHT22;7952;48.396;12.806;2023-02-28T14:44:15;7.70;43.30
15705;DHT22;7952;48.396;12.806;2023-02-28T14:46:42;7.70;43.30
15705;DHT22;7952;48.396;12.806;2023-02-28T14:49:30;7.70;43.20
15705;DHT22;7952;48.396;12.806;2023-02-28T14:52:21;7.70;43.20
15705;DHT22;7952;48.396;12.806;2023-02-28T14:55:03;7.70;43.20
15705;DHT22;7952;48.396;12.806;2023-02-28T14:57:40;7.70;43.10
15705;DHT22;7952;48.396;12.806;2023-02-28T15:00:25;7.70;43.10
15705;DHT22;7952;48.396;12.806;2023-02-28T15:02:51;7.60;43.10
15705;DHT22;7952;48.396;12.806;2023-02-28T15:08:14;7.50;43.20
15705;DHT22;7952;48.396;12.806;2023-02-28T15:10:50;7.50;43.20
15705;DHT22;7952;48.396;12.806;2023-02-28T15:13:16;7.50;43.40
15705;DHT22;7952;48.396;12.806;2023-02-28T15:15:47;7.40;43.40
15705;DHT22;7952;48.396;12.806;2023-02-28T15:21:10;7.40;43.50
15705;DHT22;7952;48.396;12.806;2023-02-28T15:23:38;7.30;43.50
15705;DHT22;7952;48.396;12.806;2023-02-28T15:26:06;7.30;43.50
15705;DHT22;7952;48.396;12.806;2023-02-28T15:28:32;7.20;43.50
15705;DHT22;7952;48.396;12.806;2023-02-28T15:31:03;7.20;43.50
15705;DHT22;7952;48.396;12.806;2023-02-28T15:33:58;7.20;44.10
15705;DHT22;7952;48.396;12.806;2023-02-28T15:36:30;7.10;43.60
15705;DHT22;7952;48.396;12.806;2023-02-28T15:38:59;7.00;43.60
15705;DHT22;7952;48.396;12.806;2023-02-28T15:41:28;7.00;43.70
15705;DHT22;7952;48.396;12.806;2023-02-28T15:44:14;7.00;43.80
15705;DHT22;7952;48.396;12.806;2023-02-28T15:46:45;6.90;43.80
15705;DHT22;7952;48.396;12.806;2023-02-28T15:49:20;6.90;43.90
15705;DHT22;7952;48.396;12.806;2023-02-28T15:51:46;6.80;43.90
15705;DHT22;7952;48.396;12.806;2023-02-28T15:54:27;6.80;44.00
15705;DHT22;7952;48.396;12.806;2023-02-28T15:56:56;6.80;44.60
15705;DHT22;7952;48.396;12.806;2023-02-28T15:59:26;6.70;44.00
15705;DHT22;7952;48.396;12.806;2023-02-28T16:02:17;6.70;44.00
15705;DHT22;7952;48.396;12.806;2023-02-28T16:07:31;6.60;44.20
15705;DHT22;7952;48.396;12.806;2023-02-28T16:09:57;6.60;44.30
15705;DHT22;7952;48.396;12.806;2023-02-28T16:12:28;6.60;44.30
15705;DHT22;7952;48.396;12.806;2023-02-28T16:14:56;6.50;44.30
15705;DHT22;7952;48.396;12.806;2023-02-28T16:17:25;6.50;44.30
15705;DHT22;7952;48.396;12.806;2023-02-28T16:19:51;6.50;44.40
15705;DHT22;7952;48.396;12.806;2023-02-28T16:22:17;6.50;44.40
15705;DHT22;7952;48.396;12.806;2023-02-28T16:24:42;6.40;44.40
15705;DHT22;7952;48.396;12.806;2023-02-28T16:27:20;6.40;44.40
15705;DHT22;7952;48.396;12.806;2023-02-28T16:29:46;6.40;44.50
15705;DHT22;7952;48.396;12.806;2023-02-28T16:32:14;6.40;44.60
15705;DHT22;7952;48.396;12.806;2023-02-28T16:34:42;6.30;44.50
15705;DHT22;7952;48.396;12.806;2023-02-28T16:37:15;6.30;44.60
15705;DHT22;7952;48.396;12.806;2023-02-28T16:39:42;6.30;44.60
15705;DHT22;7952;48.396;12.806;2023-02-28T16:42:26;6.30;44.70
15705;DHT22;7952;48.396;12.806;2023-02-28T16:44:54;6.20;44.70
15705;DHT22;7952;48.396;12.806;2023-02-28T16:47:20;6.20;44.70
15705;DHT22;7952;48.396;12.806;2023-02-28T16:49:45;6.20;44.80
15705;DHT22;7952;48.396;12.806;2023-02-28T16:52:13;6.10;44.80
15705;DHT22;7952;48.396;12.806;2023-02-28T16:54:39;6.10;44.80
15705;DHT22;7952;48.396;12.806;2023-02-28T16:57:06;6.10;44.90
15705;DHT22;7952;48.396;12.806;2023-02-28T16:59:40;6.10;44.90
15705;DHT22;7952;48.396;12.806;2023-02-28T17:02:24;6.00;44.90
15705;DHT22;7952;48.396;12.806;2023-02-28T17:04:49;6.00;45.00
15705;DHT22;7952;48.396;12.806;2023-02-28T17:07:16;6.00;45.00
15705;DHT22;7952;48.396;12.806;2023-02-28T17:09:42;5.90;45.00
15705;DHT22;7952;48.396;12.806;2023-02-28T17:12:08;5.90;45.00
15705;DHT22;7952;48.396;12.806;2023-02-28T17:14:34;5.90;45.10
15705;DHT22;7952;48.396;12.806;2023-02-28T17:17:00;5.90;45.20
15705;DHT22;7952;48.396;12.806;2023-02-28T17:19:26;5.80;45.10
15705;DHT22;7952;48.396;12.806;2023-02-28T17:21:51;5.80;45.20
15705;DHT22;7952;48.396;12.806;2023-02-28T17:24:18;5.80;45.20
15705;DHT22;7952;48.396;12.806;2023-02-28T17:26:43;5.80;45.30
15705;DHT22;7952;48.396;12.806;2023-02-28T17:29:16;5.70;45.30
15705;DHT22;7952;48.396;12.806;2023-02-28T17:31:42;5.70;45.30
15705;DHT22;7952;48.396;12.806;2023-02-28T17:34:08;5.70;45.40
15705;DHT22;7952;48.396;12.806;2023-02-28T17:36:34;5.70;45.40
15705;DHT22;7952;48.396;12.806;2023-02-28T17:39:01;5.60;45.50
15705;DHT22;7952;48.396;12.806;2023-02-28T17:41:26;5.60;45.50
15705;DHT22;7952;48.396;12.806;2023-02-28T17:43:52;5.60;45.50
15705;DHT22;7952;48.396;12.806;2023-02-28T17:46:22;5.60;45.50
15705;DHT22;7952;48.396;12.806;2023-02-28T17:48:49;5.60;45.60
15705;DHT22;7952;48.396;12.806;2023-02-28T17:51:16;5.50;45.60
15705;DHT22;7952;48.396;12.806;2023-02-28T17:53:42;5.50;45.60
15705;DHT22;7952;48.396;12.806;2023-02-28T17:56:12;5.50;45.70
15705;DHT22;7952;48.396;12.806;2023-02-28T17:58:38;5.50;45.70
15705;DHT22;7952;48.396;12.806;2023-02-28T18:01:04;5.50;45.80
15705;DHT22;7952;48.396;12.806;2023-02-28T18:03:30;5.50;45.80
15705;DHT22;7952;48.396;12.806;2023-02-28T18:05:57;5.40;45.80
15705;DHT22;7952;48.396;12.806;2023-02-28T18:08:22;5.40;45.90
15705;DHT22;7952;48.396;12.806;2023-02-28T18:10:48;5.40;45.90
15705;DHT22;7952;48.396;12.806;2023-02-28T18:13:13;5.40;45.90
15705;DHT22;7952;48.396;12.806;2023-02-28T18:15:39;5.40;46.00
15705;DHT22;7952;48.396;12.806;2023-02-28T18:18:05;5.40;46.00
15705;DHT22;7952;48.396;12.806;2023-02-28T18:20:32;5.40;46.10
15705;DHT22;7952;48.396;12.806;2023-02-28T18:22:58;5.30;46.00
15705;DHT22;7952;48.396;12.806;2023-02-28T18:25:24;5.30;46.00
15705;DHT22;7952;48.396;12.806;2023-02-28T18:27:50;5.30;46.10
15705;DHT22;7952;48.396;12.806;2023-02-28T18:30:23;5.30;46.10